North Vancouver, Canada
Current Conditions -  °F | °C
As of 7:00 AM on Monday 24 Nov 2014 (Local Time) from CYVR Reporting Station
Light Rain Light Rain  
Wind Chill: 41°   Ceiling: 3500
Heat Index: 45°   Visibility: 12mi
Dew Point: 41°   Wind: 7mph
Humidity: 87%   Direction: 90°E
Pressure: 30.31"   Gusts: NA
Location:  49.32°N, 123.07°W
Report Text: CYVR 241500Z 09006KT 12SM -RA FEW012 BKN035 OVC058 07/05 A3031 RMK CF2SC5SC1 -RA INTMT SLP265
Loading
Personal Weather Stations






























Interactive Weather Map New forecast layout! Learn more

10-Day Weather Forecast

Advertisements
Track Severe Weather on mobile